Time;durP1;ratioP1;P1;durP2;ratioP2;P2;SDS_P1;SDS_P2;PMS_P1;PMS_P2;Temp;Humidity;BMP_temperature;BMP_pressure;BME280_temperature;BME280_humidity;BME280_pressure;Samples;Min_cycle;Max_cycle;Signal;HPM_P1;HPM_P2
2022/06/23 00:00:30;;;;;;;10.35;2.67;;;22.10;99.90;;;;;;5034431;28;20028;-87
2022/06/23 00:02:58;;;;;;;18.95;3.08;;;22.10;99.90;;;;;;5033174;28;20018;-87
2022/06/23 00:05:27;;;;;;;14.98;2.70;;;22.10;99.90;;;;;;5033331;28;20017;-87
2022/06/23 00:07:59;;;;;;;17.90;2.95;;;22.10;99.90;;;;;;5032679;28;20048;-87
2022/06/23 00:10:39;;;;;;;9.10;2.75;;;22.10;99.90;;;;;;5032915;28;20032;-87
2022/06/23 00:13:30;;;;;;;13.65;2.58;;;22.00;99.90;;;;;;5034289;28;20029;-87
2022/06/23 00:15:57;;;;;;;13.38;2.35;;;22.00;99.90;;;;;;5032540;28;20079;-88
2022/06/23 00:18:26;;;;;;;13.85;2.88;;;22.00;99.90;;;;;;5032547;28;20064;-87
2022/06/23 00:21:08;;;;;;;16.38;2.80;;;22.00;99.90;;;;;;5032296;28;20436;-88
2022/06/23 00:23:41;;;;;;;12.90;2.85;;;22.00;99.90;;;;;;5032455;28;20451;-87
2022/06/23 00:26:18;;;;;;;13.45;2.70;;;22.00;99.90;;;;;;5032308;28;20025;-88
2022/06/23 00:28:45;;;;;;;18.80;2.65;;;22.00;99.90;;;;;;5032292;28;20049;-88
2022/06/23 00:31:30;;;;;;;11.68;2.60;;;22.00;99.90;;;;;;5032205;28;20021;-87
2022/06/23 00:33:58;;;;;;;16.42;3.05;;;22.00;99.90;;;;;;5033286;28;20029;-87
2022/06/23 00:36:27;;;;;;;14.10;3.00;;;22.00;99.90;;;;;;5032195;28;20026;-87
2022/06/23 00:38:53;;;;;;;11.55;2.60;;;21.90;99.90;;;;;;5033399;28;20029;-88
2022/06/23 00:41:27;;;;;;;15.13;2.72;;;21.90;99.90;;;;;;5032003;28;20032;-88
2022/06/23 00:43:53;;;;;;;10.88;2.53;;;21.90;99.90;;;;;;5032102;28;20394;-87
2022/06/23 00:46:28;;;;;;;14.95;2.85;;;21.90;99.90;;;;;;5032000;28;20438;-87
2022/06/23 00:49:00;;;;;;;7.15;2.35;;;21.90;99.90;;;;;;5032567;28;20018;-87
2022/06/23 00:51:42;;;;;;;11.65;2.65;;;21.90;99.90;;;;;;5031960;28;20080;-87
2022/06/23 00:54:34;;;;;;;10.23;2.63;;;21.90;99.90;;;;;;5032003;28;20036;-88
2022/06/23 00:57:09;;;;;;;14.15;2.78;;;21.90;99.90;;;;;;5023164;28;20030;-87
2022/06/23 01:00:06;;;;;;;7.03;2.38;;;21.90;99.90;;;;;;5031767;28;20396;-87
2022/06/23 01:02:56;;;;;;;11.68;2.58;;;21.90;99.90;;;;;;5029346;28;20450;-88
2022/06/23 01:05:30;;;;;;;13.02;2.70;;;21.90;99.90;;;;;;5033415;28;20017;-87
2022/06/23 01:08:14;;;;;;;;;;;21.90;99.90;;;;;;5032351;28;20028;-87
2022/06/23 01:10:53;;;;;;;13.85;2.88;;;21.80;99.90;;;;;;5031939;28;19905;-87
2022/06/23 01:14:00;;;;;;;13.30;3.05;;;21.80;99.90;;;;;;5033590;28;20026;-87
2022/06/23 01:16:45;;;;;;;12.65;2.78;;;21.80;99.90;;;;;;4972301;28;20034;-87
2022/06/23 01:19:29;;;;;;;13.30;2.83;;;21.80;99.90;;;;;;4973898;28;20030;-87
2022/06/23 01:22:00;;;;;;;15.27;2.70;;;21.80;99.90;;;;;;5019768;28;20393;-87
2022/06/23 01:24:35;;;;;;;17.73;2.70;;;21.80;99.90;;;;;;5035840;28;20067;-87
2022/06/23 01:27:23;;;;;;;10.57;2.50;;;21.80;99.90;;;;;;5036461;28;20061;-87
2022/06/23 01:29:58;;;;;;;11.50;2.25;;;21.80;99.90;;;;;;5035596;28;20034;-87
2022/06/23 01:32:45;;;;;;;20.27;3.28;;;21.80;99.90;;;;;;5035567;28;20021;-87
2022/06/23 01:35:22;;;;;;;15.85;2.83;;;21.80;99.90;;;;;;5035581;28;20041;-87
2022/06/23 01:37:56;;;;;;;17.85;3.15;;;21.80;99.90;;;;;;5035615;28;20384;-87
2022/06/23 01:40:32;;;;;;;12.23;2.70;;;21.80;99.90;;;;;;5035481;28;20030;-87
2022/06/23 01:43:11;;;;;;;14.50;2.88;;;21.80;99.90;;;;;;5035519;28;20423;-87
2022/06/23 01:45:43;;;;;;;13.23;2.40;;;21.80;99.90;;;;;;5035375;28;20026;-87
2022/06/23 01:51:22;;;;;;;13.50;2.50;;;21.80;99.90;;;;;;5036572;28;20171;-87
2022/06/23 01:53:48;;;;;;;10.85;2.40;;;21.70;99.90;;;;;;5036541;28;20055;-87
2022/06/23 01:56:24;;;;;;;12.63;2.58;;;21.70;99.90;;;;;;5035239;28;20036;-87
2022/06/23 01:59:00;;;;;;;14.75;3.05;;;21.70;99.90;;;;;;5035213;28;20029;-87
2022/06/23 02:01:50;;;;;;;18.27;2.85;;;21.70;99.90;;;;;;5034992;28;20040;-87
2022/06/23 02:04:22;;;;;;;11.45;3.03;;;21.70;99.90;;;;;;5036558;28;20018;-87
2022/06/23 02:06:57;;;;;;;18.60;3.33;;;21.70;99.90;;;;;;5035015;28;20029;-88
2022/06/23 02:09:40;;;;;;;17.23;2.85;;;21.70;99.90;;;;;;5034945;28;20025;-87
2022/06/23 02:12:20;;;;;;;14.18;2.78;;;21.70;99.90;;;;;;5034846;28;20026;-87
2022/06/23 02:15:14;;;;;;;17.60;2.70;;;21.70;99.90;;;;;;5034871;28;20029;-87
2022/06/23 02:17:41;;;;;;;14.85;3.22;;;21.70;99.90;;;;;;5034777;28;20083;-87
2022/06/23 02:20:20;;;;;;;14.52;2.67;;;21.70;99.90;;;;;;5034691;28;20543;-87
2022/06/23 02:22:48;;;;;;;17.90;3.03;;;21.60;99.90;;;;;;5036098;28;20025;-87
2022/06/23 02:25:27;;;;;;;11.00;2.60;;;21.60;99.90;;;;;;5036040;28;20035;-88
2022/06/23 02:28:02;;;;;;;9.90;2.20;;;21.60;99.90;;;;;;5034627;28;20057;-88
2022/06/23 02:30:46;;;;;;;14.77;2.22;;;21.60;99.90;;;;;;5035720;28;20022;-87
2022/06/23 02:33:27;;;;;;;13.90;2.90;;;21.60;99.90;;;;;;5035650;28;20029;-87
2022/06/23 02:36:04;;;;;;;17.50;2.40;;;21.60;99.90;;;;;;5034248;28;20049;-87
2022/06/23 02:38:45;;;;;;;16.20;2.83;;;21.60;99.90;;;;;;5034396;28;20041;-87
2022/06/23 02:41:22;;;;;;;14.88;2.50;;;21.60;99.90;;;;;;5034293;28;20497;-87
2022/06/23 02:44:02;;;;;;;18.83;3.05;;;21.60;99.90;;;;;;5034274;28;20029;-87
2022/06/23 02:46:33;;;;;;;9.82;2.30;;;21.60;99.90;;;;;;5034357;28;20024;-87
2022/06/23 02:49:26;;;;;;;18.85;2.95;;;21.60;99.90;;;;;;5035333;28;20025;-87
2022/06/23 02:52:19;;;;;;;15.73;2.67;;;21.60;99.90;;;;;;5034157;28;20026;-87
2022/06/23 02:54:57;;;;;;;16.77;2.83;;;21.60;99.90;;;;;;5035410;28;20337;-88
2022/06/23 02:57:46;;;;;;;14.23;2.65;;;21.50;99.90;;;;;;5034041;28;20117;-88
2022/06/23 03:00:33;;;;;;;15.23;2.45;;;21.60;99.90;;;;;;5033918;28;20060;-87
2022/06/23 03:03:14;;;;;;;9.82;2.50;;;21.50;99.90;;;;;;5034317;28;20099;-87
2022/06/23 03:05:57;;;;;;;15.20;3.08;;;21.50;99.90;;;;;;5034045;28;20024;-87
2022/06/23 03:08:35;;;;;;;14.88;2.88;;;21.50;99.90;;;;;;5050808;28;20021;-87
2022/06/23 03:11:16;;;;;;;10.85;2.70;;;21.50;99.90;;;;;;5033860;28;20026;-87
2022/06/23 03:13:48;;;;;;;8.02;2.38;;;21.50;99.90;;;;;;5034335;28;20025;-87
2022/06/23 03:16:27;;;;;;;11.50;2.47;;;21.50;99.90;;;;;;5033753;28;20397;-87
2022/06/23 03:19:08;;;;;;;15.40;2.25;;;21.50;99.90;;;;;;5033794;28;20365;-87
2022/06/23 03:21:46;;;;;;;10.68;2.50;;;21.50;99.90;;;;;;5033487;28;20061;-87
2022/06/23 03:24:22;;;;;;;10.95;2.60;;;21.50;99.90;;;;;;5033862;28;20135;-87
2022/06/23 03:26:59;;;;;;;9.40;2.40;;;21.50;99.90;;;;;;5033361;28;20404;-87
2022/06/23 03:29:33;;;;;;;19.27;2.88;;;21.50;99.90;;;;;;5034726;28;20029;-87
2022/06/23 03:32:28;;;;;;;16.05;2.67;;;21.50;99.90;;;;;;5033374;28;20022;-87
2022/06/23 03:35:29;;;;;;;11.68;2.33;;;21.50;99.90;;;;;;5034324;28;20034;-87
2022/06/23 03:38:05;;;;;;;9.07;2.22;;;21.50;99.90;;;;;;5033212;28;20027;-87
2022/06/23 03:43:51;;;;;;;10.15;2.15;;;21.50;99.90;;;;;;5034889;28;20118;-88
2022/06/23 03:46:26;;;;;;;9.45;2.40;;;21.40;99.90;;;;;;5033057;28;20163;-87
2022/06/23 03:49:10;;;;;;;12.07;2.30;;;21.40;99.90;;;;;;5033039;28;20018;-87
2022/06/23 03:51:40;;;;;;;9.77;2.30;;;21.40;99.90;;;;;;5032962;28;20029;-87
2022/06/23 03:54:16;;;;;;;8.90;2.22;;;21.40;99.90;;;;;;5033164;28;20396;-87
2022/06/23 03:56:47;;;;;;;12.52;2.30;;;21.40;99.90;;;;;;5034724;28;20373;-88
2022/06/23 03:59:38;;;;;;;8.35;2.08;;;21.40;99.90;;;;;;5034098;28;20022;-87
2022/06/23 04:02:14;;;;;;;11.95;2.47;;;21.40;99.90;;;;;;5032782;28;20030;-87
2022/06/23 04:05:10;;;;;;;7.90;1.80;;;21.40;99.90;;;;;;5033982;28;20028;-87
2022/06/23 04:07:47;;;;;;;11.10;2.28;;;21.40;99.90;;;;;;5033884;28;20049;-87
2022/06/23 04:10:20;;;;;;;7.55;2.20;;;21.40;99.90;;;;;;5032513;28;20017;-87
2022/06/23 04:12:53;;;;;;;18.17;2.65;;;21.40;99.90;;;;;;5033889;28;20027;-87
2022/06/23 04:15:34;;;;;;;13.30;2.55;;;21.40;99.90;;;;;;5034106;28;20377;-87
2022/06/23 04:18:06;;;;;;;13.25;2.75;;;21.40;99.90;;;;;;5032531;28;20017;-87
2022/06/23 04:20:40;;;;;;;14.65;2.50;;;21.40;99.90;;;;;;5033702;28;20022;-87
2022/06/23 04:23:06;;;;;;;9.25;2.10;;;21.40;99.90;;;;;;5032456;28;20075;-87
2022/06/23 04:25:39;;;;;;;11.90;2.67;;;21.40;99.90;;;;;;5032343;28;20029;-87
2022/06/23 04:28:05;;;;;;;13.82;2.53;;;21.40;99.90;;;;;;5033913;28;20388;-87
2022/06/23 04:30:38;;;;;;;13.25;2.42;;;21.30;99.90;;;;;;5032252;28;20029;-87
2022/06/23 04:33:12;;;;;;;11.77;2.20;;;21.40;99.90;;;;;;5032167;28;20025;-87
2022/06/23 04:35:40;;;;;;;11.48;2.20;;;21.30;99.90;;;;;;5032088;28;20176;-87
2022/06/23 04:38:31;;;;;;;12.85;2.60;;;21.30;99.90;;;;;;5033579;28;20033;-87
2022/06/23 04:41:09;;;;;;;7.78;2.08;;;21.30;99.90;;;;;;5033537;28;20084;-87
2022/06/23 04:43:36;;;;;;;11.35;2.25;;;21.30;99.90;;;;;;5032452;28;20017;-88
2022/06/23 04:46:16;;;;;;;15.25;2.65;;;21.30;99.90;;;;;;5032298;28;20085;-87
2022/06/23 04:48:56;;;;;;;9.18;2.30;;;21.30;99.90;;;;;;5032409;28;20018;-87
2022/06/23 04:51:44;;;;;;;12.38;2.75;;;21.30;99.90;;;;;;5032260;28;20025;-87
2022/06/23 04:54:10;;;;;;;12.68;2.45;;;21.30;99.90;;;;;;5031339;28;20048;-87
2022/06/23 04:57:04;;;;;;;11.68;2.70;;;21.30;99.90;;;;;;5032626;28;20029;-87
2022/06/23 04:59:38;;;;;;;13.05;2.60;;;21.30;99.90;;;;;;5024045;28;20030;-87
2022/06/23 05:02:29;;;;;;;12.95;2.65;;;21.30;99.90;;;;;;5033213;28;20053;-87
2022/06/23 05:05:14;;;;;;;8.50;2.33;;;21.40;99.90;;;;;;5031909;28;20479;-87
2022/06/23 05:08:01;;;;;;;10.68;2.25;;;21.40;99.90;;;;;;5031829;28;20025;-87
2022/06/23 05:10:41;;;;;;;12.65;2.58;;;21.30;99.90;;;;;;5033126;28;20151;-87
2022/06/23 05:13:12;;;;;;;11.20;2.50;;;21.40;99.90;;;;;;5033108;28;20504;-87
2022/06/23 05:15:59;;;;;;;7.53;2.17;;;21.30;99.90;;;;;;5033275;28;20457;-87
2022/06/23 05:18:30;;;;;;;9.48;3.00;;;21.30;99.90;;;;;;5031747;28;20120;-87
2022/06/23 05:21:00;;;;;;;11.27;2.50;;;21.40;99.90;;;;;;5031696;28;20037;-87
2022/06/23 05:23:36;;;;;;;11.80;2.80;;;21.40;99.90;;;;;;5033132;28;20362;-87
2022/06/23 05:26:14;;;;;;;15.30;2.90;;;21.40;99.90;;;;;;5031691;28;20550;-87
2022/06/23 05:28:42;;;;;;;10.95;2.97;;;21.40;99.90;;;;;;5031742;28;20026;-87
2022/06/23 05:31:15;;;;;;;13.52;2.50;;;21.40;99.90;;;;;;5032883;28;20088;-87
2022/06/23 05:33:53;;;;;;;9.95;2.20;;;21.40;99.90;;;;;;5031497;28;20477;-87
2022/06/23 05:36:26;;;;;;;11.35;2.45;;;21.40;99.90;;;;;;5032860;28;20041;-87
2022/06/23 05:39:11;;;;;;;14.55;2.58;;;21.40;99.90;;;;;;5031494;28;20021;-88
2022/06/23 05:41:41;;;;;;;8.00;2.53;;;21.40;99.90;;;;;;5031515;28;20501;-87
2022/06/23 05:44:21;;;;;;;7.65;2.58;;;21.40;99.90;;;;;;5031506;28;20167;-87
2022/06/23 05:46:48;;;;;;;8.57;2.35;;;21.40;99.90;;;;;;5031499;28;20025;-87
2022/06/23 05:49:25;;;;;;;10.02;1.95;;;21.40;99.90;;;;;;5031422;28;20404;-87
2022/06/23 05:52:09;;;;;;;6.40;2.17;;;21.40;99.90;;;;;;5032571;28;20483;-87
2022/06/23 05:54:44;;;;;;;5.65;2.10;;;21.40;99.90;;;;;;5032976;28;20111;-87
2022/06/23 05:57:27;;;;;;;7.28;2.20;;;21.40;99.90;;;;;;5031440;28;20040;-87
2022/06/23 06:00:23;;;;;;;8.02;2.05;;;21.40;99.90;;;;;;5031490;28;20095;-87
2022/06/23 06:03:06;;;;;;;8.48;2.35;;;21.40;99.90;;;;;;5031582;28;20043;-87
2022/06/23 06:05:42;;;;;;;10.43;2.15;;;21.40;99.90;;;;;;5033642;28;20032;-87
2022/06/23 06:08:14;;;;;;;7.25;2.65;;;21.40;99.90;;;;;;5035012;28;20068;-86
2022/06/23 06:10:41;;;;;;;8.15;2.38;;;21.40;99.90;;;;;;5035050;28;20030;-87
2022/06/23 06:13:33;;;;;;;9.68;2.55;;;21.40;99.90;;;;;;5035011;28;20026;-86
2022/06/23 06:16:01;;;;;;;5.90;2.10;;;21.40;99.90;;;;;;5034677;28;20037;-87
2022/06/23 06:18:38;;;;;;;9.13;2.30;;;21.40;99.90;;;;;;5034738;28;20065;-86
2022/06/23 06:21:08;;;;;;;5.80;2.08;;;21.50;99.90;;;;;;5036014;28;20060;-86
2022/06/23 06:23:41;;;;;;;6.93;2.17;;;21.40;99.90;;;;;;5034631;28;20028;-87
2022/06/23 06:26:12;;;;;;;7.95;2.45;;;21.40;99.90;;;;;;5034598;28;20073;-86
2022/06/23 06:28:37;;;;;;;8.02;2.28;;;21.40;99.90;;;;;;5035834;28;20022;-87
2022/06/23 06:31:33;;;;;;;8.07;2.42;;;21.50;99.90;;;;;;5035846;28;20030;-87
2022/06/23 06:34:22;;;;;;;9.98;2.95;;;21.50;99.90;;;;;;5034195;28;20021;-87
2022/06/23 06:36:52;;;;;;;10.90;2.67;;;21.50;99.90;;;;;;5034499;28;20056;-86
2022/06/23 06:39:40;;;;;;;6.63;2.45;;;21.50;99.90;;;;;;5034392;28;20025;-86
2022/06/23 06:42:17;;;;;;;7.30;2.53;;;21.50;99.90;;;;;;5035128;28;20096;-86
2022/06/23 06:44:47;;;;;;;8.80;2.50;;;21.50;99.90;;;;;;5034914;28;20531;-86
2022/06/23 06:47:24;;;;;;;7.00;2.35;;;21.50;99.90;;;;;;5034343;28;20499;-87
2022/06/23 06:49:51;;;;;;;13.07;2.63;;;21.50;99.90;;;;;;5034346;28;20030;-86
2022/06/23 06:52:17;;;;;;;9.98;2.88;;;21.50;99.90;;;;;;5034142;28;20068;-86
2022/06/23 06:54:48;;;;;;;8.23;3.08;;;21.50;99.90;;;;;;5034403;28;20057;-86
2022/06/23 06:57:32;;;;;;;8.02;2.10;;;21.50;99.90;;;;;;5034071;28;20053;-86
2022/06/23 07:00:11;;;;;;;7.55;2.60;;;21.50;99.90;;;;;;5033940;28;20030;-86
2022/06/23 07:02:48;;;;;;;7.90;2.88;;;21.50;99.90;;;;;;5033946;28;20047;-87
2022/06/23 07:05:56;;;;;;;9.05;2.38;;;21.50;99.90;;;;;;5034484;28;20379;-86
2022/06/23 07:08:38;;;;;;;9.38;2.53;;;21.60;99.90;;;;;;5033901;28;20032;-86
2022/06/23 07:11:32;;;;;;;5.85;2.20;;;21.60;99.90;;;;;;5033716;28;20030;-86
2022/06/23 07:14:05;;;;;;;7.63;2.45;;;21.60;99.90;;;;;;5033809;28;20032;-86
2022/06/23 07:16:43;;;;;;;8.40;2.60;;;21.60;99.90;;;;;;5032778;28;20117;-86
2022/06/23 07:19:34;;;;;;;6.82;2.15;;;21.60;99.90;;;;;;5033765;28;20053;-86
2022/06/23 07:22:29;;;;;;;6.65;2.33;;;21.60;99.90;;;;;;5035065;28;20228;-86
2022/06/23 07:25:08;;;;;;;6.70;2.20;;;21.60;99.90;;;;;;5034988;28;20492;-86
2022/06/23 07:27:37;;;;;;;7.85;2.42;;;21.60;99.90;;;;;;5033555;28;20032;-86
2022/06/23 07:30:08;;;;;;;9.57;2.33;;;21.60;99.90;;;;;;5034019;28;20467;-86
2022/06/23 07:32:44;;;;;;;7.65;2.42;;;21.60;99.90;;;;;;5033778;28;20029;-87
2022/06/23 07:35:22;;;;;;;10.77;2.22;;;21.60;99.90;;;;;;5033379;28;20484;-86
2022/06/23 07:37:57;;;;;;;8.52;2.00;;;21.70;99.90;;;;;;5033329;28;20545;-86
2022/06/23 07:40:25;;;;;;;7.60;2.30;;;21.60;99.90;;;;;;5034401;28;20029;-86
2022/06/23 07:42:59;;;;;;;8.38;2.00;;;21.70;99.90;;;;;;5033277;28;20032;-86
2022/06/23 07:45:36;;;;;;;6.78;2.50;;;21.70;99.90;;;;;;5033474;28;20025;-86
2022/06/23 07:48:02;;;;;;;8.10;2.25;;;21.70;99.90;;;;;;5033163;28;20026;-86
2022/06/23 07:50:29;;;;;;;10.95;2.83;;;21.70;99.90;;;;;;5033062;28;20033;-86
2022/06/23 07:52:55;;;;;;;7.88;2.40;;;21.70;99.90;;;;;;5033018;28;20064;-86
2022/06/23 07:55:29;;;;;;;9.15;2.20;;;21.70;99.90;;;;;;5033502;28;20410;-86
2022/06/23 07:57:55;;;;;;;10.53;2.50;;;21.70;99.90;;;;;;5034210;28;20540;-86
2022/06/23 08:00:21;;;;;;;4.95;2.40;;;21.80;99.90;;;;;;5034015;28;20504;-86
2022/06/23 08:03:01;;;;;;;8.77;2.30;;;21.80;99.90;;;;;;5032712;28;20028;-86
2022/06/23 08:05:37;;;;;;;5.55;2.00;;;21.80;99.90;;;;;;5032889;28;20026;-86
2022/06/23 08:08:05;;;;;;;5.07;2.33;;;21.80;99.90;;;;;;5034042;28;20021;-86
2022/06/23 08:10:32;;;;;;;5.68;2.15;;;21.80;99.90;;;;;;5032630;28;20029;-87
2022/06/23 08:13:00;;;;;;;7.43;2.60;;;21.80;99.90;;;;;;5032595;28;20082;-86
2022/06/23 08:18:31;;;;;;;7.68;2.30;;;21.80;99.90;;;;;;5033786;28;20032;-86
2022/06/23 08:21:15;;;;;;;10.20;2.35;;;21.90;99.90;;;;;;5032300;28;20029;-86
2022/06/23 08:24:09;;;;;;;9.10;2.30;;;21.90;99.90;;;;;;5033780;28;20481;-86
2022/06/23 08:26:37;;;;;;;5.40;2.17;;;21.90;99.90;;;;;;5023493;28;20612;-86
2022/06/23 08:29:07;;;;;;;6.85;2.28;;;21.90;99.90;;;;;;5048835;28;20272;-85
2022/06/23 08:31:32;;;;;;;5.25;2.47;;;22.00;99.90;;;;;;5033626;28;20026;-86
2022/06/23 08:34:00;;;;;;;7.82;2.08;;;22.00;99.90;;;;;;5032122;28;20519;-86
2022/06/23 08:36:36;;;;;;;7.47;1.98;;;21.90;99.90;;;;;;5033502;28;20038;-86
2022/06/23 08:39:12;;;;;;;10.30;2.25;;;22.00;99.90;;;;;;5033488;28;20484;-86
2022/06/23 08:41:50;;;;;;;5.82;1.77;;;22.00;99.90;;;;;;5032268;28;20487;-86
2022/06/23 08:44:34;;;;;;;8.52;2.05;;;22.00;99.90;;;;;;5032121;28;20026;-85
2022/06/23 08:47:10;;;;;;;10.13;2.22;;;22.00;99.90;;;;;;5032156;28;20129;-86
2022/06/23 08:49:51;;;;;;;8.10;2.10;;;22.10;99.90;;;;;;5033335;28;20022;-86
2022/06/23 08:52:43;;;;;;;10.00;2.30;;;22.10;99.90;;;;;;5033389;28;20027;-86
2022/06/23 08:55:26;;;;;;;4.78;2.22;;;22.10;99.90;;;;;;5033322;28;20025;-86
2022/06/23 08:58:11;;;;;;;4.97;1.83;;;22.10;99.90;;;;;;5032001;28;20036;-86
2022/06/23 09:00:49;;;;;;;5.88;2.25;;;22.10;99.90;;;;;;5033154;28;20018;-86
2022/06/23 09:03:23;;;;;;;7.75;1.90;;;22.10;99.90;;;;;;5031958;28;20029;-86
2022/06/23 09:05:54;;;;;;;5.55;2.13;;;22.10;99.90;;;;;;5031894;28;20025;-86
2022/06/23 09:08:48;;;;;;;10.68;2.30;;;22.20;99.90;;;;;;5031891;28;20079;-86
2022/06/23 09:11:28;;;;;;;5.35;1.80;;;22.20;99.90;;;;;;5024017;28;20443;-86
2022/06/23 09:14:04;;;;;;;8.68;2.47;;;22.20;99.90;;;;;;5033572;28;20022;-86
2022/06/23 09:16:48;;;;;;;5.40;1.90;;;22.20;99.90;;;;;;5031812;28;20028;-86
2022/06/23 09:19:24;;;;;;;8.45;2.58;;;22.30;99.90;;;;;;5033119;28;20025;-86
2022/06/23 09:21:59;;;;;;;7.18;2.08;;;22.30;99.90;;;;;;5031691;28;20136;-86
2022/06/23 09:24:37;;;;;;;6.25;2.20;;;22.30;99.90;;;;;;5033017;28;20071;-86
2022/06/23 09:27:15;;;;;;;5.70;2.20;;;22.30;99.90;;;;;;5031709;28;20025;-86
2022/06/23 09:29:53;;;;;;;6.90;1.73;;;22.30;99.90;;;;;;5032972;28;20384;-86
2022/06/23 09:32:24;;;;;;;8.40;2.25;;;22.40;99.90;;;;;;5031649;28;20087;-86
2022/06/23 09:35:08;;;;;;;7.90;2.35;;;22.40;99.90;;;;;;5032827;28;20100;-86
2022/06/23 09:37:51;;;;;;;7.75;2.17;;;22.40;99.90;;;;;;5033156;28;20026;-87
2022/06/23 09:40:33;;;;;;;18.52;2.70;;;22.50;99.90;;;;;;5035692;28;20040;-87
2022/06/23 09:43:37;;;;;;;18.88;2.20;;;23.30;99.90;;;;;;5037312;28;20018;-87
2022/06/23 09:46:14;;;;;;;18.88;2.30;;;24.20;99.90;;;;;;5037333;28;20411;-86
2022/06/23 09:48:58;;;;;;;20.77;2.50;;;25.00;99.40;;;;;;5037342;28;20025;-87
2022/06/23 09:51:33;;;;;;;11.20;2.08;;;25.30;98.20;;;;;;5037319;28;20056;-86
2022/06/23 09:54:26;;;;;;;13.52;2.72;;;25.40;97.50;;;;;;5038119;28;20029;-86
2022/06/23 09:57:18;;;;;;;22.90;3.10;;;25.60;97.90;;;;;;5037246;28;20056;-87
2022/06/23 10:00:12;;;;;;;16.10;2.67;;;25.70;97.90;;;;;;5037219;28;20112;-87
2022/06/23 10:03:28;;;;;;;201.07;15.60;;;25.70;98.10;;;;;;5036881;28;20079;-87
2022/06/23 10:06:09;;;;;;;19.67;3.22;;;25.80;97.30;;;;;;5036829;28;20523;-87
2022/06/23 10:08:56;;;;;;;17.77;2.78;;;26.00;97.10;;;;;;5037082;28;20027;-87
2022/06/23 10:12:03;;;;;;;11.95;2.58;;;26.10;96.70;;;;;;5036863;28;20544;-87
2022/06/23 10:15:16;;;;;;;20.55;2.55;;;26.10;96.50;;;;;;5036716;28;20060;-87
2022/06/23 10:17:58;;;;;;;13.48;2.40;;;26.30;96.70;;;;;;4977265;28;20031;-87
2022/06/23 10:20:35;;;;;;;18.45;2.70;;;26.40;95.60;;;;;;5037378;28;20037;-87
2022/06/23 10:23:28;;;;;;;15.63;2.47;;;26.50;95.90;;;;;;5036654;28;20392;-87
2022/06/23 10:26:27;;;;;;;12.85;2.60;;;26.60;96.00;;;;;;5036721;28;20059;-86
2022/06/23 10:29:46;;;;;;;8.98;2.25;;;26.80;96.30;;;;;;5037251;28;20124;-87
2022/06/23 10:32:34;;;;;;;9.85;2.08;;;26.90;95.70;;;;;;5013232;28;20037;-87
2022/06/23 10:35:40;;;;;;;11.75;2.30;;;26.90;95.80;;;;;;5035934;28;20448;-88
2022/06/23 10:38:30;;;;;;;9.98;2.30;;;27.00;95.50;;;;;;5053233;28;20527;-88
2022/06/23 10:41:29;;;;;;;13.52;2.65;;;27.00;95.40;;;;;;5035696;28;20037;-88
2022/06/23 10:44:23;;;;;;;10.50;2.25;;;27.00;95.10;;;;;;5035837;28;20017;-88
2022/06/23 10:47:08;;;;;;;16.20;2.70;;;26.90;94.80;;;;;;5036681;28;20030;-87
2022/06/23 10:49:53;;;;;;;14.05;2.28;;;26.80;94.70;;;;;;5035244;28;20503;-87
2022/06/23 10:52:26;;;;;;;14.00;2.75;;;26.30;95.30;;;;;;5033763;28;20033;-87
2022/06/23 10:55:17;;;;;;;11.82;2.58;;;25.80;95.90;;;;;;5035083;28;20052;-87
2022/06/23 10:58:11;;;;;;;14.65;2.38;;;25.50;96.40;;;;;;5034902;28;20029;-87
2022/06/23 11:00:49;;;;;;;19.73;2.70;;;25.30;96.80;;;;;;5012296;28;20073;-87
2022/06/23 11:03:24;;;;;;;9.40;2.10;;;25.00;97.20;;;;;;5035265;28;20025;-86
2022/06/23 11:06:18;;;;;;;10.73;2.20;;;24.80;97.50;;;;;;5034937;28;20021;-87
2022/06/23 11:09:05;;;;;;;11.73;2.25;;;24.70;97.80;;;;;;5036165;28;20032;-87
2022/06/23 11:11:42;;;;;;;10.65;2.20;;;24.60;98.00;;;;;;5034973;28;20030;-87
2022/06/23 11:14:28;;;;;;;13.32;2.20;;;24.60;98.10;;;;;;5036072;28;20022;-87
2022/06/23 11:17:08;;;;;;;14.70;2.17;;;24.50;98.10;;;;;;5035942;28;20445;-87
2022/06/23 11:20:16;;;;;;;7.35;1.92;;;24.50;98.30;;;;;;5034759;28;20476;-87
2022/06/23 11:23:07;;;;;;;9.30;2.28;;;24.50;98.40;;;;;;5036010;28;20026;-86
2022/06/23 11:25:58;;;;;;;10.52;2.10;;;24.40;98.40;;;;;;5036430;28;20096;-88
2022/06/23 11:28:23;;;;;;;8.27;1.70;;;24.40;98.50;;;;;;5036120;28;20022;-89
2022/06/23 11:30:58;;;;;;;7.78;2.08;;;24.40;98.60;;;;;;5034610;28;20033;-87
2022/06/23 11:33:59;;;;;;;8.07;2.50;;;24.40;98.60;;;;;;5035940;28;20017;-88
2022/06/23 11:36:24;;;;;;;12.68;2.20;;;24.40;98.70;;;;;;5036077;28;20552;-88
2022/06/23 11:38:50;;;;;;;13.75;2.40;;;24.40;98.70;;;;;;5034752;28;20056;-88
2022/06/23 11:41:53;;;;;;;8.50;1.83;;;24.40;98.70;;;;;;5034223;28;20051;-88
2022/06/23 11:44:49;;;;;;;10.95;2.00;;;24.30;98.80;;;;;;5035968;28;20017;-88
2022/06/23 11:47:52;;;;;;;11.43;2.25;;;24.40;98.90;;;;;;5034814;28;20024;-88
2022/06/23 11:50:27;;;;;;;5.57;1.70;;;24.40;98.90;;;;;;5034230;28;20025;-89
2022/06/23 11:52:53;;;;;;;8.02;1.50;;;24.40;98.90;;;;;;5034434;28;20025;-88
2022/06/23 11:55:28;;;;;;;7.40;1.90;;;24.40;98.90;;;;;;5034195;28;20071;-88
2022/06/23 11:58:13;;;;;;;5.97;1.80;;;24.40;98.90;;;;;;5034389;28;20396;-88
2022/06/23 12:01:00;;;;;;;9.32;1.90;;;24.40;98.90;;;;;;5034425;28;20057;-88
2022/06/23 12:04:05;;;;;;;7.95;1.88;;;24.40;99.00;;;;;;5035533;28;20033;-88
2022/06/23 12:06:31;;;;;;;;;;;24.40;99.00;;;;;;5034282;28;20029;-88
2022/06/23 12:09:22;;;;;;;8.18;1.80;;;24.40;99.00;;;;;;5034463;28;19928;-88
2022/06/23 12:11:49;;;;;;;4.75;1.70;;;24.40;99.00;;;;;;5033756;28;20505;-88
2022/06/23 12:14:17;;;;;;;8.25;1.58;;;24.40;99.00;;;;;;5035016;28;20412;-88
2022/06/23 12:16:59;;;;;;;9.52;2.42;;;24.30;99.00;;;;;;5033723;28;20112;-88
2022/06/23 12:19:43;;;;;;;7.03;1.75;;;24.30;99.10;;;;;;5033546;28;20026;-88
2022/06/23 12:22:22;;;;;;;7.65;1.92;;;24.30;99.10;;;;;;5035341;28;20091;-88
2022/06/23 12:25:11;;;;;;;5.55;1.70;;;24.30;99.10;;;;;;5033957;28;20392;-88
2022/06/23 12:27:42;;;;;;;6.70;1.75;;;24.40;99.10;;;;;;5033632;28;20052;-88
2022/06/23 12:30:13;;;;;;;7.85;1.77;;;24.40;99.00;;;;;;5033437;28;20025;-88
2022/06/23 12:33:07;;;;;;;7.30;1.77;;;24.40;99.00;;;;;;5033737;28;20473;-88
2022/06/23 12:36:24;;;;;;;8.35;2.17;;;24.50;99.00;;;;;;5034422;28;20041;-89
2022/06/23 12:38:57;;;;;;;9.30;2.38;;;24.70;98.90;;;;;;4974441;28;20023;-90
2022/06/23 12:41:31;;;;;;;9.60;2.00;;;25.90;97.80;;;;;;4974520;28;20030;-90
2022/06/23 12:43:58;;;;;;;11.32;2.08;;;26.90;96.90;;;;;;5008413;28;20030;-89
2022/06/23 12:46:53;;;;;;;15.10;2.58;;;27.80;95.80;;;;;;5036336;28;20575;-90
2022/06/23 12:49:31;;;;;;;18.17;2.60;;;28.20;94.80;;;;;;5033683;28;20022;-89
2022/06/23 12:52:25;;;;;;;12.82;2.47;;;28.60;94.80;;;;;;5033934;28;20036;-91
2022/06/23 12:55:09;;;;;;;10.50;2.35;;;28.80;93.80;;;;;;5035302;28;20389;-90
2022/06/23 12:58:00;;;;;;;13.25;2.13;;;29.10;93.50;;;;;;5034715;28;20025;-91
2022/06/23 13:00:38;;;;;;;13.75;2.40;;;29.10;92.70;;;;;;5035302;28;20388;-89
2022/06/23 13:03:35;;;;;;;28.92;2.90;;;29.10;92.50;;;;;;5035254;28;20018;-89
2022/06/23 13:06:22;;;;;;;29.75;3.30;;;29.10;92.50;;;;;;5035814;28;20401;-90
2022/06/23 13:08:58;;;;;;;10.63;2.40;;;29.00;92.60;;;;;;5035575;28;20504;-89
2022/06/23 13:11:40;;;;;;;15.73;3.13;;;28.90;92.80;;;;;;5034440;28;20167;-90
2022/06/23 13:14:28;;;;;;;10.38;2.13;;;29.00;92.90;;;;;;5034403;28;20034;-90
2022/06/23 13:17:04;;;;;;;12.15;2.20;;;29.60;92.10;;;;;;5038729;28;20033;-90
2022/06/23 13:19:45;;;;;;;15.63;2.28;;;29.90;91.40;;;;;;5039096;28;20094;-89
2022/06/23 13:22:11;;;;;;;12.38;2.38;;;30.10;90.60;;;;;;5038741;28;20030;-91
2022/06/23 13:24:42;;;;;;;15.02;2.53;;;30.40;90.50;;;;;;5038763;28;20035;-89
2022/06/23 13:27:15;;;;;;;11.32;1.80;;;30.30;91.20;;;;;;5036582;28;20503;-89
2022/06/23 13:30:06;;;;;;;11.05;2.30;;;30.40;90.30;;;;;;5036200;28;20477;-89
2022/06/23 13:33:09;;;;;;;59.33;4.20;;;30.80;89.90;;;;;;5037597;28;20053;-89
2022/06/23 13:35:45;;;;;;;628.63;43.40;;;30.90;89.40;;;;;;4985627;28;20126;-88
2022/06/23 13:38:42;;;;;;;183.20;13.68;;;30.70;89.90;;;;;;5037058;28;20044;-89
2022/06/23 13:41:20;;;;;;;15.10;2.70;;;30.70;89.70;;;;;;5026097;28;20040;-89
2022/06/23 13:43:52;;;;;;;24.92;3.40;;;30.30;90.10;;;;;;5037989;28;20023;-89
2022/06/23 13:46:27;;;;;;;26.75;3.55;;;29.80;90.60;;;;;;5036011;28;20507;-88
2022/06/23 13:49:06;;;;;;;28.98;3.53;;;29.40;91.20;;;;;;5035762;28;20108;-89
2022/06/23 13:51:37;;;;;;;17.10;2.95;;;28.70;91.70;;;;;;5036022;28;20026;-89
2022/06/23 13:54:28;;;;;;;26.38;2.90;;;28.10;92.50;;;;;;5035589;28;20116;-88